createdAt,value
2023-08-16T00:02:14.988Z,6.40
2023-08-16T00:04:47.927Z,6.10
2023-08-16T00:07:20.541Z,5.80
2023-08-16T00:12:25.047Z,5.80
2023-08-16T00:14:57.906Z,5.80
2023-08-16T00:17:30.307Z,6.10
2023-08-16T00:20:02.938Z,6.80
2023-08-16T00:22:35.396Z,6.00
2023-08-16T00:27:50.177Z,5.30
2023-08-16T00:30:43.502Z,6.00
2023-08-16T00:35:47.333Z,6.10
2023-08-16T00:38:19.805Z,6.80
2023-08-16T00:40:55.791Z,5.90
2023-08-16T00:43:28.107Z,6.10
2023-08-16T00:46:00.678Z,5.60
2023-08-16T00:48:37.652Z,6.20
2023-08-16T00:51:11.488Z,6.00
2023-08-16T00:53:45.278Z,6.60
2023-08-16T00:56:19.446Z,7.10
2023-08-16T00:58:52.005Z,6.20
2023-08-16T01:01:26.582Z,5.90
2023-08-16T01:03:59.034Z,7.40
2023-08-16T01:06:32.506Z,6.10
2023-08-16T01:09:05.776Z,5.90
2023-08-16T01:11:46.618Z,7.50
2023-08-16T01:14:27.386Z,6.40
2023-08-16T01:17:01.260Z,6.70
2023-08-16T01:19:36.331Z,6.00
2023-08-16T01:22:25.976Z,6.40
2023-08-16T01:25:24.399Z,6.00
2023-08-16T01:27:57.509Z,6.50
2023-08-16T01:33:11.755Z,6.60
2023-08-16T01:35:45.823Z,6.30
2023-08-16T01:38:20.623Z,7.00
2023-08-16T01:40:57.218Z,7.10
2023-08-16T01:43:30.786Z,6.70
2023-08-16T01:46:05.971Z,6.30
2023-08-16T01:48:40.749Z,7.10
2023-08-16T01:51:13.547Z,6.60
2023-08-16T01:53:46.755Z,6.40
2023-08-16T01:58:50.303Z,6.70
2023-08-16T02:01:23.135Z,7.00
2023-08-16T02:03:55.927Z,7.00
2023-08-16T02:06:30.658Z,6.60
2023-08-16T02:09:04.449Z,6.60
2023-08-16T02:11:36.824Z,6.20
2023-08-16T02:14:09.873Z,7.20
2023-08-16T02:16:42.074Z,6.80
2023-08-16T02:19:14.648Z,6.50
2023-08-16T02:21:48.988Z,6.70
2023-08-16T02:24:23.512Z,6.30
2023-08-16T02:26:55.874Z,6.50
2023-08-16T02:29:28.308Z,5.80
2023-08-16T02:32:00.576Z,6.70
2023-08-16T02:34:33.217Z,6.40
2023-08-16T02:37:05.954Z,6.90
2023-08-16T02:39:38.468Z,6.60
2023-08-16T02:42:10.996Z,7.50
2023-08-16T02:44:43.757Z,7.00
2023-08-16T02:47:16.346Z,6.70
2023-08-16T02:49:53.134Z,6.50
2023-08-16T02:52:25.469Z,7.60
2023-08-16T02:54:58.314Z,7.40
2023-08-16T02:57:32.228Z,7.00
2023-08-16T03:00:04.506Z,6.80
2023-08-16T03:02:36.973Z,7.10
2023-08-16T03:05:11.872Z,7.20
2023-08-16T03:07:44.334Z,8.30
2023-08-16T03:10:16.839Z,7.20
2023-08-16T03:12:49.391Z,7.20
2023-08-16T03:15:21.815Z,7.50
2023-08-16T03:17:54.353Z,7.10
2023-08-16T03:20:27.236Z,7.50
2023-08-16T03:22:59.820Z,7.30
2023-08-16T03:25:32.479Z,7.70
2023-08-16T03:30:36.677Z,7.70
2023-08-16T03:33:09.428Z,7.10
2023-08-16T03:35:42.196Z,7.70
2023-08-16T03:38:18.254Z,7.60
2023-08-16T03:40:50.810Z,7.60
2023-08-16T03:43:23.265Z,6.90
2023-08-16T03:45:56.650Z,7.00
2023-08-16T03:48:29.245Z,7.40
2023-08-16T03:51:01.990Z,6.90
2023-08-16T03:53:34.425Z,7.90
2023-08-16T03:56:09.679Z,7.80
2023-08-16T03:58:50.836Z,7.30
2023-08-16T04:01:24.408Z,7.80
2023-08-16T04:03:56.933Z,7.40
2023-08-16T04:06:29.508Z,7.50
2023-08-16T04:09:02.164Z,7.00
2023-08-16T04:11:35.512Z,7.40
2023-08-16T04:14:08.965Z,8.10
2023-08-16T04:16:41.730Z,6.90
2023-08-16T04:19:14.081Z,6.90
2023-08-16T04:21:48.819Z,7.10
2023-08-16T04:24:21.163Z,6.80
2023-08-16T04:26:53.754Z,7.30
2023-08-16T04:29:28.544Z,7.10
2023-08-16T04:32:01.234Z,7.20
2023-08-16T04:34:33.629Z,7.20
2023-08-16T04:37:06.362Z,6.70
2023-08-16T04:39:38.667Z,7.10
2023-08-16T04:42:11.132Z,7.10
2023-08-16T04:44:44.333Z,7.00
2023-08-16T04:47:17.384Z,6.90
2023-08-16T04:49:52.816Z,7.70
2023-08-16T04:52:26.031Z,6.90
2023-08-16T04:55:00.525Z,7.00
2023-08-16T04:57:36.879Z,6.90
2023-08-16T05:00:10.806Z,7.50
2023-08-16T05:02:51.808Z,7.70
2023-08-16T05:05:24.597Z,7.20
2023-08-16T05:07:57.150Z,7.20
2023-08-16T05:10:29.849Z,7.20
2023-08-16T05:13:03.787Z,7.60
2023-08-16T05:15:36.285Z,7.20
2023-08-16T05:18:08.915Z,7.20
2023-08-16T05:20:41.397Z,7.40
2023-08-16T05:23:13.918Z,7.90
2023-08-16T05:25:46.706Z,6.50
2023-08-16T05:28:19.282Z,6.50
2023-08-16T05:30:51.655Z,6.80
2023-08-16T05:33:24.348Z,7.00
2023-08-16T05:35:56.885Z,6.80
2023-08-16T05:38:29.607Z,6.70
2023-08-16T05:41:04.852Z,7.50
2023-08-16T05:43:37.429Z,6.50
2023-08-16T05:46:11.530Z,6.60
2023-08-16T05:48:44.048Z,6.40
2023-08-16T05:51:16.450Z,6.70
2023-08-16T05:53:49.394Z,6.70
2023-08-16T05:56:21.593Z,7.10
2023-08-16T05:58:54.438Z,6.60
2023-08-16T06:01:27.112Z,6.70
2023-08-16T06:03:59.954Z,6.50
2023-08-16T06:06:32.518Z,7.00
2023-08-16T06:09:05.781Z,7.20
2023-08-16T06:11:37.980Z,6.90
2023-08-16T06:14:10.615Z,7.30
2023-08-16T06:16:43.019Z,6.70
2023-08-16T06:19:17.439Z,6.80
2023-08-16T06:21:49.671Z,6.90
2023-08-16T06:24:22.382Z,8.10
2023-08-16T06:26:54.948Z,6.90
2023-08-16T06:29:27.549Z,7.10
2023-08-16T06:32:00.818Z,6.90
2023-08-16T06:34:33.868Z,6.80
2023-08-16T06:37:06.341Z,6.60
2023-08-16T06:39:39.758Z,6.50
2023-08-16T06:42:12.605Z,6.20
2023-08-16T06:47:15.686Z,7.20
2023-08-16T06:49:48.412Z,6.80
2023-08-16T06:52:22.395Z,5.90
2023-08-16T06:54:55.023Z,7.10
2023-08-16T06:57:27.547Z,6.80
2023-08-16T07:00:00.613Z,6.50
2023-08-16T07:02:33.945Z,6.40
2023-08-16T07:05:08.360Z,6.80
2023-08-16T07:07:40.861Z,6.80
2023-08-16T07:12:45.853Z,6.40
2023-08-16T07:15:19.363Z,6.60
2023-08-16T07:17:52.052Z,6.30
2023-08-16T07:20:24.733Z,6.90
2023-08-16T07:25:29.252Z,5.80
2023-08-16T07:28:03.304Z,6.10
2023-08-16T07:30:38.455Z,6.90
2023-08-16T07:33:10.948Z,7.70
2023-08-16T07:35:43.477Z,7.00
2023-08-16T07:38:15.808Z,6.20
2023-08-16T07:40:52.429Z,6.70
2023-08-16T07:43:25.153Z,6.00
2023-08-16T07:48:28.898Z,6.30
2023-08-16T07:53:33.544Z,6.10
2023-08-16T07:56:07.201Z,5.90
2023-08-16T07:58:39.620Z,6.80
2023-08-16T08:03:43.580Z,6.30
2023-08-16T08:06:16.213Z,6.00
2023-08-16T08:11:19.384Z,5.90
2023-08-16T08:16:22.650Z,5.80
2023-08-16T08:18:55.107Z,6.40
2023-08-16T08:23:58.408Z,5.10
2023-08-16T08:26:32.234Z,6.50
2023-08-16T08:29:04.695Z,5.60
2023-08-16T08:31:37.388Z,5.70
2023-08-16T08:34:10.021Z,6.00
2023-08-16T08:36:42.564Z,5.80
2023-08-16T08:39:17.118Z,6.00
2023-08-16T08:41:50.281Z,6.00
2023-08-16T08:44:24.516Z,5.50
2023-08-16T08:47:03.475Z,5.90
2023-08-16T08:49:40.766Z,6.00
2023-08-16T08:52:14.580Z,5.80
2023-08-16T08:54:48.519Z,6.40
2023-08-16T08:57:21.809Z,6.10
2023-08-16T08:59:55.147Z,5.80
2023-08-16T09:02:30.142Z,6.30
2023-08-16T09:05:12.260Z,5.90
2023-08-16T09:07:47.016Z,6.20
2023-08-16T09:10:20.197Z,6.70
2023-08-16T09:12:54.384Z,5.90
2023-08-16T09:15:27.914Z,6.00
2023-08-16T09:18:13.133Z,6.00
2023-08-16T09:20:47.244Z,6.40
2023-08-16T09:23:20.373Z,5.70
2023-08-16T09:25:52.905Z,5.70
2023-08-16T09:28:25.615Z,5.60
2023-08-16T09:30:58.365Z,5.50
2023-08-16T09:33:36.509Z,6.00
2023-08-16T09:36:10.028Z,5.70
2023-08-16T09:38:46.217Z,5.40
2023-08-16T09:41:20.868Z,6.80
2023-08-16T09:43:55.653Z,6.00
2023-08-16T09:46:28.769Z,5.40
2023-08-16T09:49:12.245Z,5.50
2023-08-16T09:54:20.877Z,5.40
2023-08-16T10:07:18.420Z,5.90
2023-08-16T10:09:52.516Z,5.80
2023-08-16T10:12:26.798Z,5.70
2023-08-16T10:15:01.600Z,5.50
2023-08-16T10:17:38.707Z,5.90
2023-08-16T10:20:20.327Z,5.40
2023-08-16T10:22:57.367Z,5.60
2023-08-16T10:25:38.087Z,5.80
2023-08-16T10:28:11.946Z,5.70
2023-08-16T10:31:12.963Z,6.10
2023-08-16T10:33:45.825Z,5.90
2023-08-16T10:36:19.535Z,5.50
2023-08-16T10:38:59.443Z,5.60
2023-08-16T10:41:43.674Z,6.10
2023-08-16T10:44:27.046Z,6.00
2023-08-16T10:47:02.474Z,5.50
2023-08-16T10:49:48.713Z,5.70
2023-08-16T10:52:29.246Z,5.40
2023-08-16T10:55:03.597Z,5.50
2023-08-16T10:57:37.057Z,5.20
2023-08-16T11:00:12.027Z,7.10
2023-08-16T11:02:47.300Z,6.60
2023-08-16T11:05:21.986Z,5.90
2023-08-16T11:07:55.107Z,7.10
2023-08-16T11:10:39.687Z,5.70
2023-08-16T11:13:16.848Z,5.70
2023-08-16T11:15:50.333Z,5.40
2023-08-16T11:18:34.905Z,5.30
2023-08-16T11:21:09.945Z,5.40
2023-08-16T11:23:44.244Z,5.20
2023-08-16T11:26:16.998Z,5.80
2023-08-16T11:28:50.136Z,5.50
2023-08-16T11:31:24.717Z,5.30
2023-08-16T11:33:58.258Z,5.70
2023-08-16T11:36:30.706Z,5.40
2023-08-16T11:39:03.594Z,5.40
2023-08-16T11:41:37.660Z,5.40
2023-08-16T11:44:11.957Z,5.60
2023-08-16T11:46:50.574Z,5.70
2023-08-16T11:49:26.217Z,5.30
2023-08-16T11:51:58.882Z,6.00
2023-08-16T11:54:32.357Z,5.40
2023-08-16T11:57:05.590Z,5.70
2023-08-16T11:59:40.158Z,5.90
2023-08-16T12:02:14.765Z,5.60
2023-08-16T12:04:47.865Z,6.50
2023-08-16T12:07:20.814Z,6.00
2023-08-16T12:09:55.763Z,6.20
2023-08-16T12:12:35.312Z,6.20
2023-08-16T12:15:08.938Z,6.40
2023-08-16T12:17:41.415Z,6.30
2023-08-16T12:20:15.097Z,5.90
2023-08-16T12:22:49.409Z,6.10
2023-08-16T12:25:22.128Z,6.10
2023-08-16T12:27:54.817Z,7.00
2023-08-16T12:30:29.892Z,6.30
2023-08-16T12:33:02.228Z,6.50
2023-08-16T12:35:42.391Z,7.10
2023-08-16T12:38:15.464Z,6.40
2023-08-16T12:40:48.395Z,7.00
2023-08-16T12:43:20.918Z,6.80
2023-08-16T12:45:53.840Z,7.50
2023-08-16T12:48:26.518Z,7.30
2023-08-16T12:51:04.648Z,7.10
2023-08-16T12:53:38.888Z,7.00
2023-08-16T12:56:11.864Z,6.90
2023-08-16T13:01:19.747Z,7.10
2023-08-16T13:06:31.776Z,6.40
2023-08-16T13:09:06.038Z,7.80
2023-08-16T13:14:31.809Z,7.90
2023-08-16T13:17:05.838Z,6.90
2023-08-16T13:22:18.289Z,6.70
2023-08-16T13:30:12.106Z,7.00
2023-08-16T13:33:05.094Z,6.10
2023-08-16T13:41:11.582Z,6.70
2023-08-16T13:43:45.999Z,7.10
2023-08-16T13:46:20.199Z,7.30
2023-08-16T13:48:52.797Z,7.00
2023-08-16T13:51:25.248Z,7.10
2023-08-16T13:53:59.019Z,6.80
2023-08-16T13:56:39.388Z,7.10
2023-08-16T13:59:20.947Z,6.60
2023-08-16T14:01:53.934Z,6.30
2023-08-16T14:04:26.472Z,5.90
2023-08-16T14:09:34.589Z,6.40
2023-08-16T14:12:07.957Z,6.20
2023-08-16T14:14:40.564Z,6.10
2023-08-16T14:17:13.266Z,6.20
2023-08-16T14:19:46.026Z,6.30
2023-08-16T14:22:19.002Z,6.20
2023-08-16T14:24:55.170Z,6.60
2023-08-16T14:27:29.622Z,6.70
2023-08-16T14:30:03.178Z,6.90
2023-08-16T14:32:35.748Z,6.20
2023-08-16T14:35:08.976Z,6.80
2023-08-16T14:37:41.869Z,6.80
2023-08-16T14:40:25.788Z,7.30
2023-08-16T14:43:03.129Z,6.90
2023-08-16T14:45:35.772Z,7.10
2023-08-16T14:50:39.907Z,6.10
2023-08-16T14:55:42.969Z,6.40
2023-08-16T14:58:15.347Z,5.90
2023-08-16T15:00:48.377Z,7.00
2023-08-16T15:05:52.212Z,6.70
2023-08-16T15:08:24.761Z,6.80
2023-08-16T15:11:01.798Z,6.90
2023-08-16T15:13:34.479Z,7.20
2023-08-16T15:16:07.408Z,7.00
2023-08-16T15:18:39.940Z,7.30
2023-08-16T15:21:12.516Z,7.50
2023-08-16T15:23:45.078Z,7.20
2023-08-16T15:26:17.539Z,6.70
2023-08-16T15:28:50.021Z,7.40
2023-08-16T15:33:53.848Z,7.20
2023-08-16T15:36:26.292Z,6.90
2023-08-16T15:38:58.772Z,7.20
2023-08-16T15:41:32.292Z,6.90
2023-08-16T15:44:22.264Z,7.10
2023-08-16T15:46:55.927Z,6.70
2023-08-16T15:49:28.967Z,7.50
2023-08-16T15:52:01.869Z,6.80
2023-08-16T15:54:35.569Z,7.00
2023-08-16T15:59:48.188Z,6.60
2023-08-16T16:04:51.992Z,6.70
2023-08-16T16:09:54.854Z,6.70
2023-08-16T16:12:27.424Z,7.00
2023-08-16T16:15:00.825Z,7.10
2023-08-16T16:20:04.867Z,6.90
2023-08-16T16:22:37.303Z,7.20
2023-08-16T16:25:11.159Z,7.50
2023-08-16T16:27:43.526Z,7.80
2023-08-16T16:30:18.059Z,7.60
2023-08-16T16:32:51.502Z,7.90
2023-08-16T16:35:25.381Z,7.30
2023-08-16T16:37:59.667Z,7.30
2023-08-16T16:40:32.158Z,8.10
2023-08-16T16:43:04.970Z,7.70
2023-08-16T16:45:37.534Z,8.20
2023-08-16T16:50:43.644Z,8.60
2023-08-16T16:53:15.878Z,8.50
2023-08-16T16:55:48.747Z,8.20
2023-08-16T16:58:21.207Z,8.40
2023-08-16T17:00:54.588Z,7.80
2023-08-16T17:03:27.248Z,9.10
2023-08-16T17:08:30.948Z,8.10
2023-08-16T17:11:03.405Z,7.40
2023-08-16T17:13:36.682Z,7.10
2023-08-16T17:16:14.835Z,7.70
2023-08-16T17:18:47.412Z,6.40
2023-08-16T17:21:20.017Z,7.10
2023-08-16T17:26:23.336Z,7.20
2023-08-16T17:28:56.126Z,6.30
2023-08-16T17:31:28.980Z,6.40
2023-08-16T17:34:01.598Z,5.90
2023-08-16T17:36:34.227Z,6.80
2023-08-16T17:39:10.382Z,5.90
2023-08-16T17:41:42.871Z,6.30
2023-08-16T17:46:45.901Z,6.30
2023-08-16T17:49:18.508Z,6.20
2023-08-16T17:51:51.648Z,6.20
2023-08-16T17:54:26.145Z,6.10
2023-08-16T17:56:58.790Z,6.30
2023-08-16T17:59:36.386Z,6.00
2023-08-16T18:02:10.645Z,6.10
2023-08-16T18:04:50.761Z,5.30
2023-08-16T18:07:26.684Z,6.50
2023-08-16T18:10:05.764Z,5.60
2023-08-16T18:12:40.675Z,6.00
2023-08-16T18:15:22.131Z,5.80
2023-08-16T18:18:01.679Z,6.90
2023-08-16T18:20:37.592Z,6.40
2023-08-16T18:23:12.407Z,5.60
2023-08-16T18:25:49.304Z,5.70
2023-08-16T18:28:29.367Z,5.70
2023-08-16T18:31:08.629Z,6.40
2023-08-16T18:33:47.257Z,5.60
2023-08-16T18:36:25.982Z,5.20
2023-08-16T18:39:05.664Z,5.80
2023-08-16T18:41:43.015Z,5.20
2023-08-16T18:44:20.276Z,5.90
2023-08-16T18:46:57.268Z,5.90
2023-08-16T18:49:40.741Z,5.40
2023-08-16T18:52:18.815Z,5.90
2023-08-16T18:54:58.596Z,5.70
2023-08-16T18:57:42.699Z,6.10
2023-08-16T19:00:23.512Z,6.90
2023-08-16T19:03:04.465Z,6.20
2023-08-16T19:05:49.617Z,5.80
2023-08-16T19:08:31.190Z,5.70
2023-08-16T19:11:10.479Z,6.70
2023-08-16T19:13:43.136Z,6.30
2023-08-16T19:16:17.708Z,5.70
2023-08-16T19:18:50.448Z,5.80
2023-08-16T19:21:22.949Z,6.30
2023-08-16T19:23:57.966Z,5.90
2023-08-16T19:26:31.368Z,6.30
2023-08-16T19:29:04.326Z,6.20
2023-08-16T19:31:39.579Z,6.20
2023-08-16T19:34:12.528Z,6.40
2023-08-16T19:39:36.957Z,6.20
2023-08-16T19:42:12.823Z,6.60
2023-08-16T19:44:57.156Z,6.40
2023-08-16T19:47:40.952Z,6.50
2023-08-16T19:50:23.069Z,6.40
2023-08-16T19:52:57.529Z,6.50
2023-08-16T19:55:32.416Z,6.40
2023-08-16T19:58:05.838Z,6.50
2023-08-16T20:00:40.035Z,6.80
2023-08-16T20:03:15.517Z,6.20
2023-08-16T20:05:52.606Z,6.50
2023-08-16T20:08:25.465Z,5.70
2023-08-16T20:10:58.286Z,6.60
2023-08-16T20:13:30.614Z,6.40
2023-08-16T20:16:03.303Z,6.40
2023-08-16T20:21:06.799Z,6.90
2023-08-16T20:23:39.359Z,7.20
2023-08-16T20:26:11.868Z,6.60
2023-08-16T20:28:44.266Z,6.40
2023-08-16T20:31:17.102Z,6.90
2023-08-16T20:36:22.061Z,6.80
2023-08-16T20:38:54.913Z,6.90
2023-08-16T20:41:31.039Z,7.00
2023-08-16T20:44:03.717Z,6.90
2023-08-16T20:46:45.441Z,7.50
2023-08-16T20:49:17.947Z,7.50
2023-08-16T20:51:50.623Z,8.10
2023-08-16T20:54:22.830Z,8.40
2023-08-16T20:56:55.751Z,8.20
2023-08-16T20:59:28.215Z,8.20
2023-08-16T21:02:00.900Z,7.90
2023-08-16T21:04:33.089Z,8.50
2023-08-16T21:07:05.999Z,7.80
2023-08-16T21:09:40.141Z,7.90
2023-08-16T21:12:12.675Z,8.30
2023-08-16T21:14:46.928Z,7.70
2023-08-16T21:17:19.999Z,7.90
2023-08-16T21:19:52.519Z,9.20
2023-08-16T21:22:25.096Z,8.90
2023-08-16T21:24:57.966Z,8.20
2023-08-16T21:30:01.443Z,8.00
2023-08-16T21:32:34.454Z,8.10
2023-08-16T21:35:11.849Z,8.20
2023-08-16T21:37:44.904Z,9.30
2023-08-16T21:40:18.546Z,8.70
2023-08-16T21:42:52.510Z,8.80
2023-08-16T21:45:25.233Z,8.00
2023-08-16T21:50:28.877Z,8.40
2023-08-16T21:55:31.869Z,9.50
2023-08-16T21:58:04.306Z,8.80
2023-08-16T22:00:40.216Z,8.80
2023-08-16T22:03:12.578Z,9.40
2023-08-16T22:05:45.037Z,9.00
2023-08-16T22:08:17.646Z,8.80
2023-08-16T22:10:50.505Z,9.20
2023-08-16T22:15:55.566Z,9.20
2023-08-16T22:18:28.645Z,9.50
2023-08-16T22:21:04.036Z,9.30
2023-08-16T22:23:38.864Z,9.20
2023-08-16T22:26:11.496Z,8.80
2023-08-16T22:28:44.680Z,8.90
2023-08-16T22:31:17.337Z,9.00
2023-08-16T22:33:49.797Z,8.60
2023-08-16T22:36:22.986Z,9.30
2023-08-16T22:38:55.520Z,9.70
2023-08-16T22:41:29.425Z,8.80
2023-08-16T22:44:01.958Z,8.90
2023-08-16T22:46:34.830Z,7.90
2023-08-16T22:49:07.925Z,8.90
2023-08-16T22:51:40.591Z,8.80
2023-08-16T22:54:13.329Z,8.90
2023-08-16T22:56:45.562Z,9.30
2023-08-16T22:59:18.407Z,9.20
2023-08-16T23:01:50.871Z,9.20
2023-08-16T23:04:23.296Z,9.30
2023-08-16T23:06:55.786Z,9.00
2023-08-16T23:09:28.319Z,8.40
2023-08-16T23:12:00.653Z,8.70
2023-08-16T23:14:32.976Z,8.00
2023-08-16T23:17:05.448Z,8.60
2023-08-16T23:19:38.032Z,8.80
2023-08-16T23:22:10.578Z,8.80
2023-08-16T23:24:43.069Z,8.00
2023-08-16T23:27:17.275Z,8.50
2023-08-16T23:29:49.628Z,7.80
2023-08-16T23:32:21.981Z,9.70
2023-08-16T23:34:54.376Z,9.20
2023-08-16T23:37:27.202Z,8.70
2023-08-16T23:40:00.423Z,8.70
2023-08-16T23:45:03.451Z,9.30
2023-08-16T23:47:35.810Z,8.90
2023-08-16T23:50:09.717Z,8.70
2023-08-16T23:52:42.258Z,8.80
2023-08-16T23:55:15.647Z,9.00
2023-08-16T23:57:48.186Z,8.80
